sensor_id;sensor_type;location;lat;lon;timestamp;P1;durP1;ratioP1;P2;durP2;ratioP2
37349;SDS011;23231;52.358;4.926;2022-12-05T00:00:32;39.13;;;15.83;;
37349;SDS011;23231;52.358;4.926;2022-12-05T00:05:32;36.70;;;16.17;;
37349;SDS011;23231;52.358;4.926;2022-12-05T00:10:36;38.00;;;16.97;;
37349;SDS011;23231;52.358;4.926;2022-12-05T00:15:38;37.77;;;16.67;;
37349;SDS011;23231;52.358;4.926;2022-12-05T00:20:46;35.77;;;16.17;;
37349;SDS011;23231;52.358;4.926;2022-12-05T00:25:47;39.40;;;15.70;;
37349;SDS011;23231;52.358;4.926;2022-12-05T00:30:47;36.13;;;16.10;;
37349;SDS011;23231;52.358;4.926;2022-12-05T00:35:47;38.43;;;16.53;;
37349;SDS011;23231;52.358;4.926;2022-12-05T00:40:48;38.73;;;18.20;;
37349;SDS011;23231;52.358;4.926;2022-12-05T00:45:48;43.63;;;17.77;;
37349;SDS011;23231;52.358;4.926;2022-12-05T00:50:49;42.27;;;17.17;;
37349;SDS011;23231;52.358;4.926;2022-12-05T00:55:49;41.33;;;17.73;;
37349;SDS011;23231;52.358;4.926;2022-12-05T01:00:49;40.13;;;15.90;;
37349;SDS011;23231;52.358;4.926;2022-12-05T01:05:50;37.03;;;15.27;;
37349;SDS011;23231;52.358;4.926;2022-12-05T01:10:51;41.10;;;17.10;;
37349;SDS011;23231;52.358;4.926;2022-12-05T01:15:54;36.60;;;15.73;;
37349;SDS011;23231;52.358;4.926;2022-12-05T01:20:55;33.80;;;14.40;;
37349;SDS011;23231;52.358;4.926;2022-12-05T01:25:55;34.40;;;15.13;;
37349;SDS011;23231;52.358;4.926;2022-12-05T01:30:56;34.90;;;15.80;;
37349;SDS011;23231;52.358;4.926;2022-12-05T01:35:56;31.70;;;14.60;;
37349;SDS011;23231;52.358;4.926;2022-12-05T01:41:03;30.90;;;13.73;;
37349;SDS011;23231;52.358;4.926;2022-12-05T01:46:04;38.03;;;15.87;;
37349;SDS011;23231;52.358;4.926;2022-12-05T01:51:05;33.23;;;14.47;;
37349;SDS011;23231;52.358;4.926;2022-12-05T01:56:05;32.13;;;14.40;;
37349;SDS011;23231;52.358;4.926;2022-12-05T02:01:06;32.70;;;14.43;;
37349;SDS011;23231;52.358;4.926;2022-12-05T02:06:06;31.53;;;14.00;;
37349;SDS011;23231;52.358;4.926;2022-12-05T02:11:08;32.60;;;13.80;;
37349;SDS011;23231;52.358;4.926;2022-12-05T02:32:13;30.60;;;13.93;;
37349;SDS011;23231;52.358;4.926;2022-12-05T02:43:19;30.50;;;14.50;;
37349;SDS011;23231;52.358;4.926;2022-12-05T02:48:25;32.10;;;12.97;;
37349;SDS011;23231;52.358;4.926;2022-12-05T02:53:27;30.53;;;13.43;;
37349;SDS011;23231;52.358;4.926;2022-12-05T02:58:37;31.00;;;13.57;;
37349;SDS011;23231;52.358;4.926;2022-12-05T03:03:41;30.87;;;13.23;;
37349;SDS011;23231;52.358;4.926;2022-12-05T03:08:43;29.53;;;13.10;;
37349;SDS011;23231;52.358;4.926;2022-12-05T03:13:50;33.70;;;14.20;;
37349;SDS011;23231;52.358;4.926;2022-12-05T03:18:54;30.25;;;13.80;;
37349;SDS011;23231;52.358;4.926;2022-12-05T03:24:00;26.67;;;13.10;;
37349;SDS011;23231;52.358;4.926;2022-12-05T03:29:24;29.57;;;13.50;;
37349;SDS011;23231;52.358;4.926;2022-12-05T03:40:05;28.63;;;13.23;;
37349;SDS011;23231;52.358;4.926;2022-12-05T03:45:11;31.43;;;13.60;;
37349;SDS011;23231;52.358;4.926;2022-12-05T03:50:20;31.63;;;14.13;;
37349;SDS011;23231;52.358;4.926;2022-12-05T03:55:26;32.30;;;14.33;;
37349;SDS011;23231;52.358;4.926;2022-12-05T04:00:29;32.33;;;14.07;;
37349;SDS011;23231;52.358;4.926;2022-12-05T04:05:51;32.13;;;14.63;;
37349;SDS011;23231;52.358;4.926;2022-12-05T04:10:55;32.20;;;14.77;;
37349;SDS011;23231;52.358;4.926;2022-12-05T04:16:00;34.30;;;14.73;;
37349;SDS011;23231;52.358;4.926;2022-12-05T04:21:21;39.20;;;16.20;;
37349;SDS011;23231;52.358;4.926;2022-12-05T04:26:42;36.67;;;16.03;;
37349;SDS011;23231;52.358;4.926;2022-12-05T04:31:44;40.97;;;17.40;;
37349;SDS011;23231;52.358;4.926;2022-12-05T04:36:52;36.60;;;16.97;;
37349;SDS011;23231;52.358;4.926;2022-12-05T04:41:57;38.43;;;16.20;;
37349;SDS011;23231;52.358;4.926;2022-12-05T04:47:02;41.73;;;16.67;;
37349;SDS011;23231;52.358;4.926;2022-12-05T04:52:07;37.47;;;16.37;;
37349;SDS011;23231;52.358;4.926;2022-12-05T04:57:27;38.77;;;17.33;;
37349;SDS011;23231;52.358;4.926;2022-12-05T05:02:31;40.70;;;16.77;;
37349;SDS011;23231;52.358;4.926;2022-12-05T05:07:41;36.57;;;16.10;;
37349;SDS011;23231;52.358;4.926;2022-12-05T05:12:46;40.43;;;17.23;;
37349;SDS011;23231;52.358;4.926;2022-12-05T05:17:46;32.87;;;16.23;;
37349;SDS011;23231;52.358;4.926;2022-12-05T05:22:47;39.03;;;17.20;;
37349;SDS011;23231;52.358;4.926;2022-12-05T05:27:52;37.73;;;16.93;;
37349;SDS011;23231;52.358;4.926;2022-12-05T05:32:53;31.48;;;15.52;;
37349;SDS011;23231;52.358;4.926;2022-12-05T05:37:54;36.80;;;15.67;;
37349;SDS011;23231;52.358;4.926;2022-12-05T05:42:54;31.73;;;15.17;;
37349;SDS011;23231;52.358;4.926;2022-12-05T05:47:55;29.27;;;14.40;;
37349;SDS011;23231;52.358;4.926;2022-12-05T05:52:55;30.33;;;14.03;;
37349;SDS011;23231;52.358;4.926;2022-12-05T05:57:55;27.03;;;12.57;;
37349;SDS011;23231;52.358;4.926;2022-12-05T06:02:56;27.13;;;13.33;;
37349;SDS011;23231;52.358;4.926;2022-12-05T06:07:56;30.73;;;13.47;;
37349;SDS011;23231;52.358;4.926;2022-12-05T06:12:56;25.40;;;12.50;;
37349;SDS011;23231;52.358;4.926;2022-12-05T06:17:57;21.83;;;11.13;;
37349;SDS011;23231;52.358;4.926;2022-12-05T06:22:57;21.03;;;11.13;;
37349;SDS011;23231;52.358;4.926;2022-12-05T06:27:58;22.73;;;12.10;;
37349;SDS011;23231;52.358;4.926;2022-12-05T06:32:58;20.10;;;10.87;;
37349;SDS011;23231;52.358;4.926;2022-12-05T06:37:58;21.30;;;11.80;;
37349;SDS011;23231;52.358;4.926;2022-12-05T06:42:59;22.10;;;10.87;;
37349;SDS011;23231;52.358;4.926;2022-12-05T06:47:59;20.60;;;9.97;;
37349;SDS011;23231;52.358;4.926;2022-12-05T06:53:00;16.93;;;8.90;;
37349;SDS011;23231;52.358;4.926;2022-12-05T06:58:00;17.90;;;9.60;;
37349;SDS011;23231;52.358;4.926;2022-12-05T07:03:00;16.03;;;9.60;;
37349;SDS011;23231;52.358;4.926;2022-12-05T07:08:01;18.17;;;9.10;;
37349;SDS011;23231;52.358;4.926;2022-12-05T07:13:01;17.00;;;8.70;;
37349;SDS011;23231;52.358;4.926;2022-12-05T07:18:01;15.03;;;8.47;;
37349;SDS011;23231;52.358;4.926;2022-12-05T07:23:02;14.47;;;7.83;;
37349;SDS011;23231;52.358;4.926;2022-12-05T07:28:02;16.67;;;9.03;;
37349;SDS011;23231;52.358;4.926;2022-12-05T07:33:03;15.50;;;8.80;;
37349;SDS011;23231;52.358;4.926;2022-12-05T07:38:03;16.57;;;9.03;;
37349;SDS011;23231;52.358;4.926;2022-12-05T07:43:04;15.23;;;8.07;;
37349;SDS011;23231;52.358;4.926;2022-12-05T07:48:04;15.53;;;7.63;;
37349;SDS011;23231;52.358;4.926;2022-12-05T07:53:04;17.53;;;8.10;;
37349;SDS011;23231;52.358;4.926;2022-12-05T07:58:05;16.23;;;8.77;;
37349;SDS011;23231;52.358;4.926;2022-12-05T08:03:05;15.83;;;8.57;;
37349;SDS011;23231;52.358;4.926;2022-12-05T08:08:05;14.50;;;7.90;;
37349;SDS011;23231;52.358;4.926;2022-12-05T08:13:06;16.50;;;8.20;;
37349;SDS011;23231;52.358;4.926;2022-12-05T08:18:07;19.47;;;9.10;;
37349;SDS011;23231;52.358;4.926;2022-12-05T08:23:07;14.87;;;7.80;;
37349;SDS011;23231;52.358;4.926;2022-12-05T08:28:08;15.10;;;8.93;;
37349;SDS011;23231;52.358;4.926;2022-12-05T08:33:08;21.50;;;8.20;;
37349;SDS011;23231;52.358;4.926;2022-12-05T08:38:09;14.90;;;8.23;;
37349;SDS011;23231;52.358;4.926;2022-12-05T08:43:10;15.50;;;8.43;;
37349;SDS011;23231;52.358;4.926;2022-12-05T08:48:10;15.13;;;7.93;;
37349;SDS011;23231;52.358;4.926;2022-12-05T08:53:11;16.87;;;8.50;;
37349;SDS011;23231;52.358;4.926;2022-12-05T08:58:12;13.20;;;7.50;;
37349;SDS011;23231;52.358;4.926;2022-12-05T09:03:12;12.67;;;6.90;;
37349;SDS011;23231;52.358;4.926;2022-12-05T09:08:13;15.00;;;8.60;;
37349;SDS011;23231;52.358;4.926;2022-12-05T09:13:13;15.87;;;7.90;;
37349;SDS011;23231;52.358;4.926;2022-12-05T09:18:13;13.50;;;7.53;;
37349;SDS011;23231;52.358;4.926;2022-12-05T09:23:14;13.53;;;8.10;;
37349;SDS011;23231;52.358;4.926;2022-12-05T09:28:14;15.00;;;7.43;;
37349;SDS011;23231;52.358;4.926;2022-12-05T09:33:14;12.40;;;7.20;;
37349;SDS011;23231;52.358;4.926;2022-12-05T09:38:15;14.97;;;7.57;;
37349;SDS011;23231;52.358;4.926;2022-12-05T09:43:26;13.03;;;7.37;;
37349;SDS011;23231;52.358;4.926;2022-12-05T09:48:36;13.37;;;7.47;;
37349;SDS011;23231;52.358;4.926;2022-12-05T09:53:38;13.67;;;7.60;;
37349;SDS011;23231;52.358;4.926;2022-12-05T10:03:46;13.37;;;7.13;;
37349;SDS011;23231;52.358;4.926;2022-12-05T10:19:29;15.23;;;7.97;;
37349;SDS011;23231;52.358;4.926;2022-12-05T10:24:40;15.63;;;7.53;;
37349;SDS011;23231;52.358;4.926;2022-12-05T10:29:44;14.90;;;6.67;;
37349;SDS011;23231;52.358;4.926;2022-12-05T10:40:43;14.90;;;7.63;;
37349;SDS011;23231;52.358;4.926;2022-12-05T10:45:45;14.33;;;7.67;;
37349;SDS011;23231;52.358;4.926;2022-12-05T10:50:48;16.83;;;8.43;;
37349;SDS011;23231;52.358;4.926;2022-12-05T10:55:53;19.03;;;9.13;;
37349;SDS011;23231;52.358;4.926;2022-12-05T11:00:58;18.37;;;9.13;;
37349;SDS011;23231;52.358;4.926;2022-12-05T11:06:17;18.40;;;9.17;;
37349;SDS011;23231;52.358;4.926;2022-12-05T11:11:27;18.25;;;8.43;;
37349;SDS011;23231;52.358;4.926;2022-12-05T11:16:33;16.48;;;7.60;;
37349;SDS011;23231;52.358;4.926;2022-12-05T11:21:42;17.00;;;7.33;;
37349;SDS011;23231;52.358;4.926;2022-12-05T11:26:42;16.67;;;7.20;;
37349;SDS011;23231;52.358;4.926;2022-12-05T11:31:44;16.60;;;7.10;;
37349;SDS011;23231;52.358;4.926;2022-12-05T11:36:53;19.00;;;7.97;;
37349;SDS011;23231;52.358;4.926;2022-12-05T11:47:22;15.40;;;7.20;;
37349;SDS011;23231;52.358;4.926;2022-12-05T12:03:20;17.63;;;7.77;;
37349;SDS011;23231;52.358;4.926;2022-12-05T12:08:32;18.00;;;7.63;;
37349;SDS011;23231;52.358;4.926;2022-12-05T12:13:52;17.60;;;7.60;;
37349;SDS011;23231;52.358;4.926;2022-12-05T12:55:27;17.67;;;8.05;;
37349;SDS011;23231;52.358;4.926;2022-12-05T13:00:44;17.98;;;7.75;;
37349;SDS011;23231;52.358;4.926;2022-12-05T13:05:58;18.77;;;7.57;;
37349;SDS011;23231;52.358;4.926;2022-12-05T13:11:01;20.93;;;7.90;;
37349;SDS011;23231;52.358;4.926;2022-12-05T13:16:04;13.50;;;6.90;;
37349;SDS011;23231;52.358;4.926;2022-12-05T13:21:07;14.57;;;7.27;;
37349;SDS011;23231;52.358;4.926;2022-12-05T13:26:08;15.27;;;8.13;;
37349;SDS011;23231;52.358;4.926;2022-12-05T13:31:10;16.40;;;6.83;;
37349;SDS011;23231;52.358;4.926;2022-12-05T13:36:20;16.88;;;7.13;;
37349;SDS011;23231;52.358;4.926;2022-12-05T13:41:44;15.00;;;6.87;;
37349;SDS011;23231;52.358;4.926;2022-12-05T13:47:04;11.93;;;6.33;;
37349;SDS011;23231;52.358;4.926;2022-12-05T13:52:07;14.13;;;6.40;;
37349;SDS011;23231;52.358;4.926;2022-12-05T14:02:57;12.80;;;6.43;;
37349;SDS011;23231;52.358;4.926;2022-12-05T14:18:36;13.77;;;6.80;;
37349;SDS011;23231;52.358;4.926;2022-12-05T14:44:35;16.83;;;7.63;;
37349;SDS011;23231;52.358;4.926;2022-12-05T14:55:02;16.43;;;7.50;;
37349;SDS011;23231;52.358;4.926;2022-12-05T15:00:05;14.97;;;6.80;;
37349;SDS011;23231;52.358;4.926;2022-12-05T15:10:33;15.63;;;7.37;;
37349;SDS011;23231;52.358;4.926;2022-12-05T15:31:15;13.37;;;6.70;;
37349;SDS011;23231;52.358;4.926;2022-12-05T15:36:16;12.33;;;6.23;;
37349;SDS011;23231;52.358;4.926;2022-12-05T15:41:18;12.20;;;5.77;;
37349;SDS011;23231;52.358;4.926;2022-12-05T15:46:19;11.50;;;5.77;;
37349;SDS011;23231;52.358;4.926;2022-12-05T15:51:25;10.90;;;5.60;;
37349;SDS011;23231;52.358;4.926;2022-12-05T15:56:32;16.80;;;7.97;;
37349;SDS011;23231;52.358;4.926;2022-12-05T16:01:38;14.23;;;6.23;;
37349;SDS011;23231;52.358;4.926;2022-12-05T16:17:02;11.30;;;6.30;;
37349;SDS011;23231;52.358;4.926;2022-12-05T16:27:20;17.57;;;9.83;;
37349;SDS011;23231;52.358;4.926;2022-12-05T16:32:24;13.70;;;5.70;;
37349;SDS011;23231;52.358;4.926;2022-12-05T16:37:25;10.00;;;4.73;;
37349;SDS011;23231;52.358;4.926;2022-12-05T16:42:28;8.57;;;4.50;;
37349;SDS011;23231;52.358;4.926;2022-12-05T16:52:59;12.43;;;5.20;;
37349;SDS011;23231;52.358;4.926;2022-12-05T16:58:01;13.37;;;5.10;;
37349;SDS011;23231;52.358;4.926;2022-12-05T17:03:02;13.03;;;5.13;;
37349;SDS011;23231;52.358;4.926;2022-12-05T17:08:03;10.47;;;4.60;;
37349;SDS011;23231;52.358;4.926;2022-12-05T17:13:03;10.60;;;4.97;;
37349;SDS011;23231;52.358;4.926;2022-12-05T17:18:17;13.10;;;5.10;;
37349;SDS011;23231;52.358;4.926;2022-12-05T17:23:22;9.00;;;5.17;;
37349;SDS011;23231;52.358;4.926;2022-12-05T17:28:22;10.03;;;5.90;;
37349;SDS011;23231;52.358;4.926;2022-12-05T17:33:23;15.23;;;6.90;;
37349;SDS011;23231;52.358;4.926;2022-12-05T17:38:24;14.23;;;5.67;;
37349;SDS011;23231;52.358;4.926;2022-12-05T17:43:24;11.57;;;6.13;;
37349;SDS011;23231;52.358;4.926;2022-12-05T17:48:25;14.00;;;5.90;;
37349;SDS011;23231;52.358;4.926;2022-12-05T17:53:25;14.97;;;6.23;;
37349;SDS011;23231;52.358;4.926;2022-12-05T17:58:25;9.57;;;5.47;;
37349;SDS011;23231;52.358;4.926;2022-12-05T18:03:26;11.37;;;5.10;;
37349;SDS011;23231;52.358;4.926;2022-12-05T18:08:27;12.57;;;5.40;;
37349;SDS011;23231;52.358;4.926;2022-12-05T18:13:27;11.00;;;4.80;;
37349;SDS011;23231;52.358;4.926;2022-12-05T18:18:28;10.97;;;5.13;;
37349;SDS011;23231;52.358;4.926;2022-12-05T18:23:28;12.27;;;5.60;;
37349;SDS011;23231;52.358;4.926;2022-12-05T18:28:28;10.53;;;5.53;;
37349;SDS011;23231;52.358;4.926;2022-12-05T18:33:29;10.37;;;5.43;;
37349;SDS011;23231;52.358;4.926;2022-12-05T18:38:29;14.20;;;5.60;;
37349;SDS011;23231;52.358;4.926;2022-12-05T18:43:30;13.07;;;5.43;;
37349;SDS011;23231;52.358;4.926;2022-12-05T18:48:32;10.23;;;5.23;;
37349;SDS011;23231;52.358;4.926;2022-12-05T18:53:33;12.87;;;5.47;;
37349;SDS011;23231;52.358;4.926;2022-12-05T18:58:33;10.57;;;5.23;;
37349;SDS011;23231;52.358;4.926;2022-12-05T19:03:34;13.67;;;6.27;;
37349;SDS011;23231;52.358;4.926;2022-12-05T19:08:35;12.17;;;5.90;;
37349;SDS011;23231;52.358;4.926;2022-12-05T19:13:36;14.80;;;6.50;;
37349;SDS011;23231;52.358;4.926;2022-12-05T19:18:36;12.40;;;5.40;;
37349;SDS011;23231;52.358;4.926;2022-12-05T19:23:37;14.13;;;6.03;;
37349;SDS011;23231;52.358;4.926;2022-12-05T19:28:37;13.87;;;6.33;;
37349;SDS011;23231;52.358;4.926;2022-12-05T19:33:42;12.43;;;6.47;;
37349;SDS011;23231;52.358;4.926;2022-12-05T19:38:47;14.47;;;6.30;;
37349;SDS011;23231;52.358;4.926;2022-12-05T19:43:48;14.47;;;6.10;;
37349;SDS011;23231;52.358;4.926;2022-12-05T19:48:49;13.07;;;6.80;;
37349;SDS011;23231;52.358;4.926;2022-12-05T19:53:50;15.13;;;6.50;;
37349;SDS011;23231;52.358;4.926;2022-12-05T19:58:50;14.00;;;6.50;;
37349;SDS011;23231;52.358;4.926;2022-12-05T20:03:52;16.87;;;6.80;;
37349;SDS011;23231;52.358;4.926;2022-12-05T20:09:14;15.57;;;6.93;;
37349;SDS011;23231;52.358;4.926;2022-12-05T20:14:15;15.47;;;6.73;;
37349;SDS011;23231;52.358;4.926;2022-12-05T20:19:16;13.07;;;6.73;;
37349;SDS011;23231;52.358;4.926;2022-12-05T20:24:17;14.20;;;6.97;;
37349;SDS011;23231;52.358;4.926;2022-12-05T20:29:17;15.10;;;6.83;;
37349;SDS011;23231;52.358;4.926;2022-12-05T20:34:17;15.83;;;7.00;;
37349;SDS011;23231;52.358;4.926;2022-12-05T20:39:18;16.47;;;6.33;;
37349;SDS011;23231;52.358;4.926;2022-12-05T20:44:18;13.67;;;6.73;;
37349;SDS011;23231;52.358;4.926;2022-12-05T20:49:19;18.38;;;7.05;;
37349;SDS011;23231;52.358;4.926;2022-12-05T20:54:19;13.23;;;6.37;;
37349;SDS011;23231;52.358;4.926;2022-12-05T20:59:19;17.40;;;6.63;;
37349;SDS011;23231;52.358;4.926;2022-12-05T21:04:20;14.67;;;5.97;;
37349;SDS011;23231;52.358;4.926;2022-12-05T21:09:20;13.07;;;5.80;;
37349;SDS011;23231;52.358;4.926;2022-12-05T21:14:29;15.02;;;5.72;;
37349;SDS011;23231;52.358;4.926;2022-12-05T21:19:29;15.33;;;5.97;;
37349;SDS011;23231;52.358;4.926;2022-12-05T21:24:30;12.57;;;5.53;;
37349;SDS011;23231;52.358;4.926;2022-12-05T21:29:30;13.17;;;5.00;;
37349;SDS011;23231;52.358;4.926;2022-12-05T21:34:30;13.87;;;5.80;;
37349;SDS011;23231;52.358;4.926;2022-12-05T21:39:31;11.87;;;5.47;;
37349;SDS011;23231;52.358;4.926;2022-12-05T21:44:31;13.87;;;5.40;;
37349;SDS011;23231;52.358;4.926;2022-12-05T21:49:32;12.17;;;5.17;;
37349;SDS011;23231;52.358;4.926;2022-12-05T21:54:32;13.93;;;5.50;;
37349;SDS011;23231;52.358;4.926;2022-12-05T21:59:32;15.63;;;5.93;;
37349;SDS011;23231;52.358;4.926;2022-12-05T22:04:33;13.37;;;5.17;;
37349;SDS011;23231;52.358;4.926;2022-12-05T22:09:33;11.67;;;5.17;;
37349;SDS011;23231;52.358;4.926;2022-12-05T22:14:33;17.33;;;5.73;;
37349;SDS011;23231;52.358;4.926;2022-12-05T22:19:34;14.77;;;5.83;;
37349;SDS011;23231;52.358;4.926;2022-12-05T22:24:34;13.97;;;5.83;;
37349;SDS011;23231;52.358;4.926;2022-12-05T22:29:35;10.27;;;5.43;;
37349;SDS011;23231;52.358;4.926;2022-12-05T22:34:35;11.23;;;4.90;;
37349;SDS011;23231;52.358;4.926;2022-12-05T22:39:36;14.97;;;5.20;;
37349;SDS011;23231;52.358;4.926;2022-12-05T22:44:36;14.80;;;5.67;;
37349;SDS011;23231;52.358;4.926;2022-12-05T22:49:36;12.07;;;5.10;;
37349;SDS011;23231;52.358;4.926;2022-12-05T22:54:37;10.73;;;4.80;;
37349;SDS011;23231;52.358;4.926;2022-12-05T22:59:38;12.87;;;5.07;;
37349;SDS011;23231;52.358;4.926;2022-12-05T23:04:38;14.10;;;5.30;;
37349;SDS011;23231;52.358;4.926;2022-12-05T23:09:39;10.97;;;4.73;;
37349;SDS011;23231;52.358;4.926;2022-12-05T23:14:39;11.67;;;4.27;;
37349;SDS011;23231;52.358;4.926;2022-12-05T23:19:39;13.60;;;5.40;;
37349;SDS011;23231;52.358;4.926;2022-12-05T23:24:40;11.63;;;4.77;;
37349;SDS011;23231;52.358;4.926;2022-12-05T23:29:40;17.27;;;5.27;;
37349;SDS011;23231;52.358;4.926;2022-12-05T23:34:41;10.63;;;4.50;;
37349;SDS011;23231;52.358;4.926;2022-12-05T23:39:42;8.90;;;4.23;;
37349;SDS011;23231;52.358;4.926;2022-12-05T23:44:43;13.37;;;4.27;;
37349;SDS011;23231;52.358;4.926;2022-12-05T23:49:44;10.30;;;4.03;;
37349;SDS011;23231;52.358;4.926;2022-12-05T23:54:44;12.10;;;4.30;;
37349;SDS011;23231;52.358;4.926;2022-12-05T23:59:45;10.43;;;4.13;;
